createdAt,value
2018-03-06T00:00:49.806Z,2.02
2018-03-06T00:03:18.472Z,1.96
2018-03-06T00:05:46.427Z,1.91
2018-03-06T00:08:14.399Z,1.86
2018-03-06T00:10:45.902Z,1.96
2018-03-06T00:13:14.181Z,1.87
2018-03-06T00:15:42.087Z,1.85
2018-03-06T00:18:10.026Z,1.79
2018-03-06T00:20:37.977Z,1.80
2018-03-06T00:23:05.961Z,1.78
2018-03-06T00:25:34.438Z,1.82
2018-03-06T00:28:02.370Z,1.75
2018-03-06T00:30:30.334Z,1.73
2018-03-06T00:32:59.177Z,1.70
2018-03-06T00:35:27.131Z,1.68
2018-03-06T00:37:55.073Z,1.72
2018-03-06T00:40:23.036Z,1.69
2018-03-06T00:42:51.938Z,1.76
2018-03-06T00:45:20.203Z,1.82
2018-03-06T00:47:48.157Z,1.64
2018-03-06T00:50:16.073Z,1.61
2018-03-06T00:52:44.037Z,1.58
2018-03-06T00:55:11.978Z,1.65
2018-03-06T00:57:39.928Z,1.52
2018-03-06T01:00:07.855Z,1.46
2018-03-06T01:02:35.819Z,1.42
2018-03-06T01:05:05.958Z,1.40
2018-03-06T01:07:34.002Z,1.42
2018-03-06T01:10:01.978Z,1.42
2018-03-06T01:12:29.912Z,1.40
2018-03-06T01:14:59.292Z,1.45
2018-03-06T01:17:27.235Z,1.38
2018-03-06T01:19:56.009Z,1.38
2018-03-06T01:22:24.319Z,1.41
2018-03-06T01:24:56.416Z,1.34
2018-03-06T01:27:24.484Z,1.31
2018-03-06T01:29:52.843Z,1.24
2018-03-06T01:32:20.775Z,1.27
2018-03-06T01:34:48.703Z,1.21
2018-03-06T01:37:16.647Z,1.23
2018-03-06T01:39:44.676Z,1.25
2018-03-06T01:42:12.957Z,1.32
2018-03-06T01:44:42.789Z,1.18
2018-03-06T01:47:10.757Z,1.25
2018-03-06T01:49:39.596Z,1.25
2018-03-06T01:52:07.498Z,1.21
2018-03-06T01:54:35.433Z,1.23
2018-03-06T01:57:05.245Z,1.23
2018-03-06T01:59:33.565Z,1.14
2018-03-06T02:02:01.525Z,1.14
2018-03-06T02:04:29.797Z,1.09
2018-03-06T02:06:58.452Z,1.10
2018-03-06T02:09:26.394Z,1.18
2018-03-06T02:11:57.872Z,1.17
2018-03-06T02:14:29.327Z,1.10
2018-03-06T02:16:57.289Z,1.09
2018-03-06T02:19:25.220Z,1.18
2018-03-06T02:21:53.156Z,1.11
2018-03-06T02:24:24.477Z,1.52
2018-03-06T02:26:52.384Z,1.50
2018-03-06T02:29:20.390Z,1.35
2018-03-06T02:31:51.764Z,1.23
2018-03-06T02:34:19.674Z,1.22
2018-03-06T02:36:47.625Z,1.19
2018-03-06T02:39:15.577Z,1.32
2018-03-06T02:41:43.489Z,1.34
2018-03-06T02:44:11.432Z,1.24
2018-03-06T02:46:39.370Z,1.14
2018-03-06T02:49:07.669Z,1.14
2018-03-06T02:51:35.584Z,1.18
2018-03-06T02:54:03.546Z,1.12
2018-03-06T02:56:31.500Z,1.10
2018-03-06T02:58:59.425Z,0.96
2018-03-06T03:01:27.362Z,0.96
2018-03-06T03:03:55.368Z,0.90
2018-03-06T03:06:24.115Z,0.83
2018-03-06T03:08:52.649Z,0.96
2018-03-06T03:11:20.609Z,1.02
2018-03-06T03:13:48.536Z,0.91
2018-03-06T03:18:48.686Z,0.93
2018-03-06T03:21:17.522Z,0.95
2018-03-06T03:23:51.513Z,0.96
2018-03-06T03:26:23.183Z,0.93
2018-03-06T03:28:51.114Z,0.81
2018-03-06T03:31:19.092Z,0.91
2018-03-06T03:33:47.029Z,0.98
2018-03-06T03:36:14.997Z,0.81
2018-03-06T03:38:42.957Z,0.84
2018-03-06T03:41:10.926Z,0.98
2018-03-06T03:43:38.921Z,0.83
2018-03-06T03:46:06.888Z,0.82
2018-03-06T03:48:34.834Z,0.88
2018-03-06T03:51:02.777Z,0.78
2018-03-06T03:53:30.768Z,0.79
2018-03-06T03:55:59.639Z,0.79
2018-03-06T03:58:27.587Z,0.86
2018-03-06T04:00:55.522Z,0.83
2018-03-06T04:03:23.469Z,0.77
2018-03-06T04:05:51.436Z,0.88
2018-03-06T04:08:19.393Z,0.80
2018-03-06T04:10:47.355Z,0.81
2018-03-06T04:13:15.309Z,0.79
2018-03-06T04:15:43.270Z,0.77
2018-03-06T04:20:44.427Z,0.77
2018-03-06T04:23:12.374Z,0.73
2018-03-06T04:25:40.316Z,0.72
2018-03-06T04:28:08.343Z,0.73
2018-03-06T04:33:17.370Z,0.76
2018-03-06T04:35:51.528Z,0.67
2018-03-06T04:40:53.597Z,0.64
2018-03-06T04:43:21.519Z,0.66
2018-03-06T04:45:49.480Z,1.11
2018-03-06T04:48:17.414Z,1.03
2018-03-06T04:50:45.385Z,0.96
2018-03-06T04:53:16.657Z,0.91
2018-03-06T04:55:44.649Z,0.86
2018-03-06T04:58:12.596Z,0.65
2018-03-06T05:00:40.547Z,0.45
2018-03-06T05:03:08.482Z,0.38
2018-03-06T05:05:36.505Z,0.47
2018-03-06T05:08:04.448Z,0.55
2018-03-06T05:10:32.407Z,0.47
2018-03-06T05:13:00.360Z,0.44
2018-03-06T05:15:28.331Z,0.39
2018-03-06T05:17:56.270Z,0.47
2018-03-06T05:20:24.212Z,0.59
2018-03-06T05:22:52.159Z,0.59
2018-03-06T05:25:20.132Z,0.54
2018-03-06T05:27:48.099Z,0.61
2018-03-06T05:30:16.049Z,0.45
2018-03-06T05:32:44.032Z,0.44
2018-03-06T05:35:11.987Z,0.42
2018-03-06T05:37:39.925Z,0.31
2018-03-06T05:40:07.878Z,0.30
2018-03-06T05:42:35.814Z,0.45
2018-03-06T05:45:04.353Z,0.39
2018-03-06T05:47:32.264Z,0.34
2018-03-06T05:50:00.645Z,0.33
2018-03-06T05:52:28.606Z,0.36
2018-03-06T05:54:56.553Z,0.31
2018-03-06T05:57:24.500Z,0.42
2018-03-06T05:59:55.055Z,0.35
2018-03-06T06:02:22.985Z,0.28
2018-03-06T06:04:50.939Z,0.15
2018-03-06T06:07:18.879Z,0.10
2018-03-06T06:09:46.832Z,0.20
2018-03-06T06:12:14.773Z,0.12
2018-03-06T06:14:42.767Z,0.17
2018-03-06T06:17:10.722Z,0.18
2018-03-06T06:19:38.692Z,0.12
2018-03-06T06:22:06.636Z,0.14
2018-03-06T06:24:34.592Z,0.02
2018-03-06T06:27:02.617Z,0.05
2018-03-06T06:29:30.543Z,0.13
2018-03-06T06:31:58.486Z,0.36
2018-03-06T06:34:26.446Z,0.49
2018-03-06T06:36:54.387Z,0.45
2018-03-06T06:39:22.377Z,0.40
2018-03-06T06:41:50.374Z,0.39
2018-03-06T06:44:18.297Z,0.46
2018-03-06T06:46:46.269Z,0.51
2018-03-06T06:49:14.236Z,0.48
2018-03-06T06:51:42.167Z,0.33
2018-03-06T06:54:10.139Z,0.28
2018-03-06T06:56:38.185Z,0.22
2018-03-06T06:59:06.150Z,0.33
2018-03-06T07:01:34.083Z,0.37
2018-03-06T07:04:02.032Z,0.57
2018-03-06T07:06:30.023Z,0.64
2018-03-06T07:08:57.961Z,0.63
2018-03-06T07:11:25.969Z,0.83
2018-03-06T07:13:53.910Z,1.01
2018-03-06T07:16:22.223Z,1.09
2018-03-06T07:18:50.286Z,1.22
2018-03-06T07:21:18.318Z,1.32
2018-03-06T07:23:46.341Z,1.47
2018-03-06T07:26:14.299Z,1.82
2018-03-06T07:28:42.220Z,2.15
2018-03-06T07:31:10.144Z,2.26
2018-03-06T07:33:38.119Z,2.79
2018-03-06T07:36:06.109Z,2.90
2018-03-06T07:38:34.096Z,3.01
2018-03-06T07:41:02.044Z,3.17
2018-03-06T07:43:29.979Z,2.99
2018-03-06T07:45:57.900Z,3.00
2018-03-06T07:48:25.877Z,3.25
2018-03-06T07:50:53.821Z,3.44
2018-03-06T07:53:21.813Z,3.50
2018-03-06T07:55:49.764Z,3.74
2018-03-06T07:58:17.766Z,3.69
2018-03-06T08:00:45.739Z,3.68
2018-03-06T08:03:13.713Z,3.79
2018-03-06T08:05:41.668Z,3.75
2018-03-06T08:08:09.638Z,3.86
2018-03-06T08:10:37.571Z,3.95
2018-03-06T08:13:05.588Z,3.95
2018-03-06T08:15:33.538Z,4.23
2018-03-06T08:18:01.505Z,4.19
2018-03-06T08:20:29.474Z,4.41
2018-03-06T08:22:57.387Z,4.57
2018-03-06T08:25:25.337Z,4.56
2018-03-06T08:27:53.283Z,4.82
2018-03-06T08:30:21.216Z,4.67
2018-03-06T08:32:49.157Z,4.81
2018-03-06T08:35:17.094Z,4.92
2018-03-06T08:37:45.154Z,4.96
2018-03-06T08:40:13.133Z,5.03
2018-03-06T08:42:41.100Z,5.22
2018-03-06T08:45:09.140Z,5.26
2018-03-06T08:47:37.080Z,5.77
2018-03-06T08:50:05.025Z,5.66
2018-03-06T08:52:32.994Z,5.57
2018-03-06T08:55:00.950Z,5.87
2018-03-06T08:57:28.917Z,6.17
2018-03-06T08:59:56.819Z,6.48
2018-03-06T09:02:24.789Z,6.73
2018-03-06T09:04:52.722Z,7.58
2018-03-06T09:07:20.647Z,7.83
2018-03-06T09:09:48.576Z,8.22
2018-03-06T09:12:16.565Z,8.14
2018-03-06T09:14:44.505Z,8.56
2018-03-06T09:17:12.485Z,8.88
2018-03-06T09:19:40.702Z,9.14
2018-03-06T09:22:08.647Z,9.59
2018-03-06T09:24:37.068Z,9.80
2018-03-06T09:27:05.146Z,10.01
2018-03-06T09:29:33.131Z,10.41
2018-03-06T09:32:01.161Z,10.66
2018-03-06T09:34:29.194Z,10.06
2018-03-06T09:36:57.360Z,9.98
2018-03-06T09:39:25.268Z,9.82
2018-03-06T09:41:53.242Z,10.20
2018-03-06T09:44:21.221Z,10.07
2018-03-06T09:46:49.156Z,9.78
2018-03-06T09:49:17.134Z,9.95
2018-03-06T09:51:45.131Z,10.12
2018-03-06T09:54:13.132Z,10.29
2018-03-06T09:56:41.065Z,10.88
2018-03-06T09:59:09.228Z,11.11
2018-03-06T10:01:56.750Z,10.56
2018-03-06T10:04:25.551Z,11.04
2018-03-06T10:06:53.512Z,11.12
2018-03-06T10:09:21.485Z,11.45
2018-03-06T10:11:49.479Z,11.63
2018-03-06T10:14:17.423Z,11.55
2018-03-06T10:16:45.374Z,12.00
2018-03-06T10:19:13.361Z,11.63
2018-03-06T10:21:41.322Z,11.44
2018-03-06T10:24:09.291Z,11.74
2018-03-06T10:26:37.228Z,11.63
2018-03-06T10:29:05.195Z,12.14
2018-03-06T10:31:33.225Z,11.98
2018-03-06T10:34:01.177Z,11.98
2018-03-06T10:36:29.161Z,11.96
2018-03-06T10:38:57.106Z,12.01
2018-03-06T10:41:25.085Z,11.38
2018-03-06T10:43:53.162Z,11.13
2018-03-06T10:46:21.121Z,10.79
2018-03-06T10:48:49.092Z,11.31
2018-03-06T10:51:17.078Z,11.48
2018-03-06T10:53:45.001Z,11.66
2018-03-06T10:56:12.968Z,11.74
2018-03-06T10:58:41.039Z,12.06
2018-03-06T11:01:09.052Z,11.86
2018-03-06T11:03:44.034Z,11.59
2018-03-06T11:06:11.993Z,11.27
2018-03-06T11:08:39.972Z,11.43
2018-03-06T11:11:07.992Z,11.41
2018-03-06T11:13:36.018Z,11.63
2018-03-06T11:16:03.989Z,11.57
2018-03-06T11:18:31.954Z,11.93
2018-03-06T11:20:59.890Z,11.70
2018-03-06T11:23:27.837Z,12.14
2018-03-06T11:25:55.784Z,12.07
2018-03-06T11:28:23.760Z,12.04
2018-03-06T11:30:51.678Z,12.11
2018-03-06T11:33:19.688Z,12.08
2018-03-06T11:35:47.675Z,12.15
2018-03-06T11:38:15.617Z,12.10
2018-03-06T11:40:43.623Z,12.19
2018-03-06T11:43:12.040Z,12.01
2018-03-06T11:45:40.097Z,11.68
2018-03-06T11:48:08.123Z,11.74
2018-03-06T11:50:36.101Z,11.25
2018-03-06T11:53:04.070Z,11.16
2018-03-06T11:55:32.033Z,11.57
2018-03-06T11:58:00.023Z,11.12
2018-03-06T12:00:28.038Z,11.32
2018-03-06T12:02:56.088Z,11.14
2018-03-06T12:05:24.123Z,11.24
2018-03-06T12:07:52.082Z,11.53
2018-03-06T12:10:20.298Z,11.20
2018-03-06T12:12:48.319Z,11.15
2018-03-06T12:15:17.170Z,10.80
2018-03-06T12:17:45.233Z,11.02
2018-03-06T12:20:13.245Z,11.31
2018-03-06T12:22:41.694Z,11.32
2018-03-06T12:25:09.715Z,11.40
2018-03-06T12:27:39.392Z,11.42
2018-03-06T12:30:07.444Z,11.75
2018-03-06T12:32:35.354Z,11.70
2018-03-06T12:35:03.311Z,11.83
2018-03-06T12:37:31.296Z,11.68
2018-03-06T12:39:59.282Z,11.86
2018-03-06T12:42:27.235Z,11.82
2018-03-06T12:44:55.183Z,11.73
2018-03-06T12:47:23.129Z,11.72
2018-03-06T12:49:51.119Z,11.68
2018-03-06T12:52:19.071Z,11.45
2018-03-06T12:54:47.132Z,12.00
2018-03-06T12:57:15.464Z,11.86
2018-03-06T12:59:43.432Z,11.88
2018-03-06T13:02:11.480Z,11.83
2018-03-06T13:04:39.455Z,11.83
2018-03-06T13:07:07.483Z,11.53
2018-03-06T13:09:35.395Z,11.69
2018-03-06T13:12:03.390Z,11.77
2018-03-06T13:14:31.328Z,11.73
2018-03-06T13:16:59.276Z,11.73
2018-03-06T13:19:27.227Z,11.63
2018-03-06T13:21:55.157Z,12.07
2018-03-06T13:24:23.102Z,12.11
2018-03-06T13:26:51.097Z,11.86
2018-03-06T13:29:19.086Z,11.77
2018-03-06T13:31:47.036Z,11.68
2018-03-06T13:34:15.014Z,11.74
2018-03-06T13:36:42.968Z,11.49
2018-03-06T13:39:10.971Z,11.56
2018-03-06T13:41:38.912Z,11.07
2018-03-06T13:44:07.104Z,10.88
2018-03-06T13:46:35.063Z,11.04
2018-03-06T13:49:02.992Z,10.87
2018-03-06T13:51:30.952Z,10.83
2018-03-06T13:53:58.946Z,10.52
2018-03-06T13:56:26.939Z,10.28
2018-03-06T13:58:54.882Z,9.89
2018-03-06T14:01:22.855Z,10.07
2018-03-06T14:03:50.903Z,9.95
2018-03-06T14:06:18.837Z,9.79
2018-03-06T14:08:46.851Z,10.09
2018-03-06T14:11:14.830Z,9.81
2018-03-06T14:13:42.825Z,9.67
2018-03-06T14:16:10.802Z,9.54
2018-03-06T14:18:38.835Z,9.42
2018-03-06T14:21:06.761Z,9.47
2018-03-06T14:23:34.701Z,9.26
2018-03-06T14:26:02.662Z,9.20
2018-03-06T14:28:30.548Z,9.03
2018-03-06T14:30:58.465Z,8.62
2018-03-06T14:33:26.374Z,8.13
2018-03-06T14:35:54.321Z,8.28
2018-03-06T14:38:22.235Z,8.19
2018-03-06T14:40:50.180Z,7.88
2018-03-06T14:43:18.109Z,8.02
2018-03-06T14:45:46.074Z,8.06
2018-03-06T14:48:14.010Z,7.88
2018-03-06T14:50:41.938Z,7.79
2018-03-06T14:53:09.909Z,7.83
2018-03-06T14:55:37.858Z,7.70
2018-03-06T14:58:05.846Z,7.58
2018-03-06T15:00:33.792Z,7.38
2018-03-06T15:03:01.730Z,7.41
2018-03-06T15:05:29.675Z,7.38
2018-03-06T15:07:57.640Z,7.38
2018-03-06T15:10:25.574Z,7.14
2018-03-06T15:12:53.577Z,7.28
2018-03-06T15:15:21.547Z,7.17
2018-03-06T15:17:49.522Z,7.23
2018-03-06T15:20:17.553Z,7.14
2018-03-06T15:22:45.490Z,7.09
2018-03-06T15:25:13.408Z,7.15
2018-03-06T15:27:41.391Z,6.91
2018-03-06T15:30:09.371Z,6.78
2018-03-06T15:32:37.341Z,6.78
2018-03-06T15:35:05.277Z,6.58
2018-03-06T15:37:33.242Z,6.57
2018-03-06T15:40:01.201Z,6.57
2018-03-06T15:42:29.209Z,6.42
2018-03-06T15:44:57.162Z,6.24
2018-03-06T15:47:25.238Z,6.10
2018-03-06T15:49:53.179Z,6.14
2018-03-06T15:52:21.153Z,6.43
2018-03-06T15:54:49.113Z,6.25
2018-03-06T15:57:17.165Z,6.61
2018-03-06T15:59:45.173Z,6.25
2018-03-06T16:02:13.135Z,5.94
2018-03-06T16:04:41.154Z,5.93
2018-03-06T16:07:09.081Z,5.68
2018-03-06T16:09:37.048Z,5.63
2018-03-06T16:12:05.054Z,5.85
2018-03-06T16:14:32.992Z,5.94
2018-03-06T16:17:01.073Z,5.76
2018-03-06T16:19:29.068Z,5.76
2018-03-06T16:21:57.059Z,5.81
2018-03-06T16:24:25.006Z,5.42
2018-03-06T16:26:52.962Z,5.32
2018-03-06T16:29:20.917Z,5.20
2018-03-06T16:31:48.836Z,5.02
2018-03-06T16:34:16.845Z,5.15
2018-03-06T16:36:44.835Z,5.06
2018-03-06T16:39:12.776Z,5.12
2018-03-06T16:41:41.716Z,5.22
2018-03-06T16:44:09.652Z,5.43
2018-03-06T16:46:37.597Z,5.74
2018-03-06T16:49:05.644Z,5.48
2018-03-06T16:51:33.573Z,5.33
2018-03-06T16:54:01.571Z,5.27
2018-03-06T16:56:29.614Z,5.11
2018-03-06T16:58:57.561Z,5.25
2018-03-06T17:01:25.515Z,5.22
2018-03-06T17:03:53.468Z,5.49
2018-03-06T17:06:21.406Z,5.43
2018-03-06T17:08:49.342Z,5.18
2018-03-06T17:11:17.304Z,5.60
2018-03-06T17:13:46.019Z,5.41
2018-03-06T17:16:15.848Z,5.35
2018-03-06T17:18:43.769Z,5.50
2018-03-06T17:21:11.702Z,5.36
2018-03-06T17:23:39.642Z,5.25
2018-03-06T17:26:07.607Z,5.51
2018-03-06T17:28:35.686Z,5.10
2018-03-06T17:31:03.673Z,5.08
2018-03-06T17:33:31.613Z,5.36
2018-03-06T17:35:59.568Z,5.22
2018-03-06T17:38:27.531Z,5.22
2018-03-06T17:40:55.499Z,5.07
2018-03-06T17:43:23.409Z,4.96
2018-03-06T17:45:51.428Z,4.68
2018-03-06T17:48:19.451Z,4.52
2018-03-06T17:50:47.427Z,4.51
2018-03-06T17:53:15.393Z,4.31
2018-03-06T17:55:43.336Z,4.34
2018-03-06T17:58:11.280Z,4.62
2018-03-06T18:00:39.214Z,4.47
2018-03-06T18:03:07.200Z,4.53
2018-03-06T18:05:35.182Z,4.33
2018-03-06T18:08:03.130Z,4.44
2018-03-06T18:10:31.082Z,4.50
2018-03-06T18:12:59.033Z,4.50
2018-03-06T18:15:27.001Z,4.18
2018-03-06T18:17:54.970Z,4.15
2018-03-06T18:20:22.936Z,4.08
2018-03-06T18:22:50.869Z,3.95
2018-03-06T18:25:18.857Z,4.02
2018-03-06T18:27:46.777Z,4.01
2018-03-06T18:30:14.712Z,3.91
2018-03-06T18:32:42.679Z,3.77
2018-03-06T18:35:10.665Z,3.88
2018-03-06T18:37:38.719Z,3.85
2018-03-06T18:40:06.668Z,3.84
2018-03-06T18:42:34.637Z,3.70
2018-03-06T18:45:02.632Z,3.67
2018-03-06T18:47:30.547Z,3.68
2018-03-06T18:50:04.077Z,3.70
2018-03-06T18:52:32.142Z,3.70
2018-03-06T18:55:00.056Z,3.63
2018-03-06T18:57:28.004Z,3.50
2018-03-06T19:03:17.829Z,3.58
2018-03-06T19:08:41.141Z,3.50
2018-03-06T19:11:09.159Z,3.49
2018-03-06T19:13:37.094Z,3.55
2018-03-06T19:16:05.037Z,3.93
2018-03-06T19:18:32.963Z,4.16
2018-03-06T19:21:00.917Z,4.09
2018-03-06T19:23:28.884Z,4.19
2018-03-06T19:25:56.904Z,4.20
2018-03-06T19:28:24.841Z,4.13
2018-03-06T19:30:52.790Z,4.37
2018-03-06T19:33:23.045Z,5.20
2018-03-06T19:35:52.096Z,4.58
2018-03-06T19:38:20.021Z,4.22
2018-03-06T19:40:48.040Z,4.10
2018-03-06T19:43:16.116Z,4.24
2018-03-06T19:45:44.047Z,3.98
2018-03-06T19:48:11.987Z,3.86
2018-03-06T19:50:39.908Z,3.86
2018-03-06T19:53:07.927Z,3.80
2018-03-06T19:55:35.866Z,4.00
2018-03-06T19:58:04.579Z,3.74
2018-03-06T20:00:32.521Z,3.62
2018-03-06T20:03:00.520Z,3.55
2018-03-06T20:05:28.482Z,3.52
2018-03-06T20:07:56.456Z,3.70
2018-03-06T20:10:24.440Z,3.70
2018-03-06T20:12:52.568Z,3.57
2018-03-06T20:15:20.589Z,3.48
2018-03-06T20:17:48.534Z,3.46
2018-03-06T20:20:17.318Z,3.39
2018-03-06T20:22:45.222Z,3.36
2018-03-06T20:25:18.843Z,3.34
2018-03-06T20:27:46.763Z,3.45
2018-03-06T20:30:20.420Z,3.26
2018-03-06T20:32:54.013Z,3.25
2018-03-06T20:35:22.002Z,3.25
2018-03-06T20:37:49.926Z,3.24
2018-03-06T20:40:23.497Z,3.29
2018-03-06T20:42:51.400Z,3.18
2018-03-06T20:45:19.352Z,3.26
2018-03-06T20:47:47.336Z,3.27
2018-03-06T20:50:15.267Z,3.42
2018-03-06T20:52:48.993Z,3.27
2018-03-06T20:55:16.977Z,3.20
2018-03-06T20:57:44.977Z,3.11
2018-03-06T21:00:12.940Z,3.18
2018-03-06T21:02:40.919Z,3.13
2018-03-06T21:05:08.898Z,3.08
2018-03-06T21:07:36.844Z,3.11
2018-03-06T21:10:04.954Z,3.11
2018-03-06T21:12:32.998Z,3.13
2018-03-06T21:15:01.089Z,3.16
2018-03-06T21:17:29.020Z,3.10
2018-03-06T21:19:57.130Z,3.34
2018-03-06T21:22:25.056Z,3.57
2018-03-06T21:24:53.196Z,3.63
2018-03-06T21:27:21.123Z,3.56
2018-03-06T21:29:49.104Z,3.54
2018-03-06T21:32:17.134Z,3.70
2018-03-06T21:34:45.081Z,3.54
2018-03-06T21:37:12.994Z,3.49
2018-03-06T21:39:40.929Z,3.57
2018-03-06T21:42:08.938Z,3.46
2018-03-06T21:44:36.866Z,3.52
2018-03-06T21:47:04.817Z,3.39
2018-03-06T21:49:32.752Z,3.20
2018-03-06T21:52:00.720Z,3.19
2018-03-06T21:54:28.663Z,3.39
2018-03-06T21:56:56.598Z,3.11
2018-03-06T21:59:24.745Z,2.88
2018-03-06T22:01:52.657Z,2.90
2018-03-06T22:04:20.672Z,2.88
2018-03-06T22:06:48.673Z,2.82
2018-03-06T22:09:17.532Z,2.62
2018-03-06T22:11:45.498Z,2.75
2018-03-06T22:14:14.118Z,2.73
2018-03-06T22:16:42.140Z,2.76
2018-03-06T22:19:10.923Z,2.78
2018-03-06T22:21:38.912Z,2.62
2018-03-06T22:24:06.857Z,2.59
2018-03-06T22:26:34.892Z,2.59
2018-03-06T22:29:02.881Z,2.65
2018-03-06T22:31:31.655Z,2.53
2018-03-06T22:33:59.634Z,2.55
2018-03-06T22:36:27.649Z,2.56
2018-03-06T22:38:55.619Z,2.60
2018-03-06T22:41:23.575Z,2.58
2018-03-06T22:43:51.537Z,2.42
2018-03-06T22:46:19.465Z,2.46
2018-03-06T22:48:47.427Z,2.59
2018-03-06T22:51:15.369Z,2.55
2018-03-06T22:53:43.334Z,2.47
2018-03-06T22:56:11.297Z,2.46
2018-03-06T22:58:39.254Z,2.47
2018-03-06T23:01:08.081Z,2.53
2018-03-06T23:03:36.021Z,2.45
2018-03-06T23:06:04.160Z,2.41
2018-03-06T23:08:32.146Z,2.50
2018-03-06T23:11:00.054Z,2.49
2018-03-06T23:13:28.178Z,2.47
2018-03-06T23:15:56.660Z,2.35
2018-03-06T23:18:24.664Z,2.42
2018-03-06T23:20:52.599Z,2.41
2018-03-06T23:23:20.568Z,2.46
2018-03-06T23:25:48.610Z,2.45
2018-03-06T23:28:16.549Z,2.50
2018-03-06T23:30:44.610Z,2.51
2018-03-06T23:33:12.621Z,2.45
2018-03-06T23:35:40.616Z,2.47
2018-03-06T23:38:08.571Z,2.59
2018-03-06T23:40:36.604Z,2.84
2018-03-06T23:43:04.591Z,2.70
2018-03-06T23:45:32.628Z,2.62
2018-03-06T23:48:00.693Z,2.71
2018-03-06T23:50:28.618Z,2.66
2018-03-06T23:52:56.681Z,2.58
2018-03-06T23:55:24.698Z,2.54
2018-03-06T23:57:52.707Z,2.58
